sensor_id;sensor_type;location;lat;lon;timestamp;pressure;altitude;pressure_sealevel;temperature;humidity
64544;BME280;50936;51.660;5.616;2023-06-05T00:01:25;101903.59;;;24.29;49.69
64544;BME280;50936;51.660;5.616;2023-06-05T00:03:52;101914.47;;;24.31;49.90
64544;BME280;50936;51.660;5.616;2023-06-05T00:06:20;101908.22;;;24.29;49.82
64544;BME280;50936;51.660;5.616;2023-06-05T00:08:47;101902.91;;;24.27;49.83
64544;BME280;50936;51.660;5.616;2023-06-05T00:11:14;101904.63;;;24.28;50.03
64544;BME280;50936;51.660;5.616;2023-06-05T00:13:40;101904.78;;;24.27;49.96
64544;BME280;50936;51.660;5.616;2023-06-05T00:16:07;101904.78;;;24.27;49.90
64544;BME280;50936;51.660;5.616;2023-06-05T00:18:34;101902.03;;;24.27;50.06
64544;BME280;50936;51.660;5.616;2023-06-05T00:21:01;101900.31;;;24.26;49.71
64544;BME280;50936;51.660;5.616;2023-06-05T00:23:30;101898.41;;;24.26;49.75
64544;BME280;50936;51.660;5.616;2023-06-05T00:25:57;101901.16;;;24.26;49.72
64544;BME280;50936;51.660;5.616;2023-06-05T00:28:24;101895.81;;;24.25;49.67
64544;BME280;50936;51.660;5.616;2023-06-05T00:30:52;101901.34;;;24.25;49.81
64544;BME280;50936;51.660;5.616;2023-06-05T00:33:19;101906.84;;;24.25;50.06
64544;BME280;50936;51.660;5.616;2023-06-05T00:35:46;101905.16;;;24.24;49.71
64544;BME280;50936;51.660;5.616;2023-06-05T00:38:13;101904.09;;;24.25;49.69
64544;BME280;50936;51.660;5.616;2023-06-05T00:40:41;101899.63;;;24.24;49.80
64544;BME280;50936;51.660;5.616;2023-06-05T00:43:08;101899.63;;;24.24;49.65
64544;BME280;50936;51.660;5.616;2023-06-05T00:45:35;101897.88;;;24.23;49.76
64544;BME280;50936;51.660;5.616;2023-06-05T00:48:02;101898.94;;;24.21;49.75
64544;BME280;50936;51.660;5.616;2023-06-05T00:50:32;101897.88;;;24.23;50.10
64544;BME280;50936;51.660;5.616;2023-06-05T00:53:01;101895.28;;;24.21;50.00
64544;BME280;50936;51.660;5.616;2023-06-05T00:55:30;101894.28;;;24.22;49.71
64544;BME280;50936;51.660;5.616;2023-06-05T00:57:57;101899.09;;;24.20;49.79
64544;BME280;50936;51.660;5.616;2023-06-05T01:00:25;101898.22;;;24.19;49.83
64544;BME280;50936;51.660;5.616;2023-06-05T01:02:53;101899.09;;;24.20;49.88
64544;BME280;50936;51.660;5.616;2023-06-05T01:05:24;101895.47;;;24.19;49.76
64544;BME280;50936;51.660;5.616;2023-06-05T01:07:52;101895.66;;;24.18;49.99
64544;BME280;50936;51.660;5.616;2023-06-05T01:10:20;101896.50;;;24.18;50.15
64544;BME280;50936;51.660;5.616;2023-06-05T01:15:29;101893.06;;;24.16;49.82
64544;BME280;50936;51.660;5.616;2023-06-05T01:17:57;101892.00;;;24.17;49.93
64544;BME280;50936;51.660;5.616;2023-06-05T01:20:35;101885.63;;;24.17;49.86
64544;BME280;50936;51.660;5.616;2023-06-05T01:23:06;101882.03;;;24.16;49.98
64544;BME280;50936;51.660;5.616;2023-06-05T01:25:34;101887.53;;;24.16;49.84
64544;BME280;50936;51.660;5.616;2023-06-05T01:28:09;101884.78;;;24.16;50.21
64544;BME280;50936;51.660;5.616;2023-06-05T01:30:54;101887.53;;;24.16;50.13
64544;BME280;50936;51.660;5.616;2023-06-05T01:33:38;101880.28;;;24.15;50.02
64544;BME280;50936;51.660;5.616;2023-06-05T01:36:29;101885.81;;;24.15;49.78
64544;BME280;50936;51.660;5.616;2023-06-05T01:38:58;101891.31;;;24.15;49.99
64544;BME280;50936;51.660;5.616;2023-06-05T01:41:27;101882.34;;;24.13;50.00
64544;BME280;50936;51.660;5.616;2023-06-05T01:43:55;101882.34;;;24.13;49.75
64544;BME280;50936;51.660;5.616;2023-06-05T01:46:23;101875.13;;;24.12;50.29
64544;BME280;50936;51.660;5.616;2023-06-05T01:48:52;101879.59;;;24.13;50.26
64544;BME280;50936;51.660;5.616;2023-06-05T01:51:21;101887.03;;;24.13;49.87
64544;BME280;50936;51.660;5.616;2023-06-05T01:53:48;101879.75;;;24.12;49.96
64544;BME280;50936;51.660;5.616;2023-06-05T01:56:16;101876.84;;;24.13;50.15
64544;BME280;50936;51.660;5.616;2023-06-05T01:58:47;101867.88;;;24.11;50.20
64544;BME280;50936;51.660;5.616;2023-06-05T02:01:14;101877.88;;;24.12;49.92
64544;BME280;50936;51.660;5.616;2023-06-05T02:03:45;101867.00;;;24.11;50.24
64544;BME280;50936;51.660;5.616;2023-06-05T02:06:16;101870.63;;;24.11;49.92
64544;BME280;50936;51.660;5.616;2023-06-05T02:08:43;101868.88;;;24.10;49.88
64544;BME280;50936;51.660;5.616;2023-06-05T02:11:10;101867.00;;;24.11;50.08
64544;BME280;50936;51.660;5.616;2023-06-05T02:13:38;101863.38;;;24.10;50.31
64544;BME280;50936;51.660;5.616;2023-06-05T02:16:09;101855.09;;;24.10;50.05
64544;BME280;50936;51.660;5.616;2023-06-05T02:18:37;101858.91;;;24.09;49.96
64544;BME280;50936;51.660;5.616;2023-06-05T02:21:04;101855.28;;;24.09;49.89
64544;BME280;50936;51.660;5.616;2023-06-05T02:23:32;101857.16;;;24.08;50.36
64544;BME280;50936;51.660;5.616;2023-06-05T02:25:59;101857.16;;;24.08;49.97
64544;BME280;50936;51.660;5.616;2023-06-05T02:28:26;101864.41;;;24.09;49.98
64544;BME280;50936;51.660;5.616;2023-06-05T02:30:54;101854.41;;;24.08;50.22
64544;BME280;50936;51.660;5.616;2023-06-05T02:33:22;101853.56;;;24.08;50.46
64544;BME280;50936;51.660;5.616;2023-06-05T02:35:50;101854.41;;;24.08;50.30
64544;BME280;50936;51.660;5.616;2023-06-05T02:38:18;101849.94;;;24.07;50.02
64544;BME280;50936;51.660;5.616;2023-06-05T02:40:45;101849.94;;;24.07;49.98
64544;BME280;50936;51.660;5.616;2023-06-05T02:43:12;101848.19;;;24.06;50.02
64544;BME280;50936;51.660;5.616;2023-06-05T02:45:41;101849.94;;;24.07;50.13
64544;BME280;50936;51.660;5.616;2023-06-05T02:48:08;101853.72;;;24.06;50.42
64544;BME280;50936;51.660;5.616;2023-06-05T02:50:35;101847.34;;;24.06;50.43
64544;BME280;50936;51.660;5.616;2023-06-05T02:53:05;101849.25;;;24.05;50.50
64544;BME280;50936;51.660;5.616;2023-06-05T02:55:34;101842.00;;;24.04;50.05
64544;BME280;50936;51.660;5.616;2023-06-05T02:58:07;101840.97;;;24.05;50.46
64544;BME280;50936;51.660;5.616;2023-06-05T03:00:43;101844.75;;;24.04;50.22
64544;BME280;50936;51.660;5.616;2023-06-05T03:03:13;101841.13;;;24.04;50.01
64544;BME280;50936;51.660;5.616;2023-06-05T03:05:45;101841.13;;;24.04;50.29
64544;BME280;50936;51.660;5.616;2023-06-05T03:08:15;101845.78;;;24.03;50.11
64544;BME280;50936;51.660;5.616;2023-06-05T03:10:44;101843.00;;;24.03;50.57
64544;BME280;50936;51.660;5.616;2023-06-05T03:13:12;101841.31;;;24.02;50.27
64544;BME280;50936;51.660;5.616;2023-06-05T03:15:39;101845.97;;;24.01;50.29
64544;BME280;50936;51.660;5.616;2023-06-05T03:18:10;101848.72;;;24.01;50.17
64544;BME280;50936;51.660;5.616;2023-06-05T03:20:38;101839.56;;;24.01;50.14
64544;BME280;50936;51.660;5.616;2023-06-05T03:23:05;101846.81;;;24.02;50.39
64544;BME280;50936;51.660;5.616;2023-06-05T03:25:35;101848.88;;;24.00;50.53
64544;BME280;50936;51.660;5.616;2023-06-05T03:28:02;101838.72;;;24.00;50.17
64544;BME280;50936;51.660;5.616;2023-06-05T03:30:29;101841.47;;;24.00;50.45
64544;BME280;50936;51.660;5.616;2023-06-05T03:32:59;101837.84;;;24.00;50.60
64544;BME280;50936;51.660;5.616;2023-06-05T03:35:27;101833.34;;;23.99;50.52
64544;BME280;50936;51.660;5.616;2023-06-05T03:37:59;101834.41;;;23.98;50.24
64544;BME280;50936;51.660;5.616;2023-06-05T03:40:27;101827.84;;;23.99;50.49
64544;BME280;50936;51.660;5.616;2023-06-05T03:42:54;101827.84;;;23.99;50.23
64544;BME280;50936;51.660;5.616;2023-06-05T03:45:21;101825.06;;;23.99;50.10
64544;BME280;50936;51.660;5.616;2023-06-05T03:47:49;101825.06;;;23.99;50.49
64544;BME280;50936;51.660;5.616;2023-06-05T03:50:17;101832.66;;;23.97;50.41
64544;BME280;50936;51.660;5.616;2023-06-05T03:52:44;101833.53;;;23.97;50.22
64544;BME280;50936;51.660;5.616;2023-06-05T03:55:12;101828.00;;;23.97;50.19
64544;BME280;50936;51.660;5.616;2023-06-05T03:57:40;101830.75;;;23.97;50.46
64544;BME280;50936;51.660;5.616;2023-06-05T04:00:10;101827.16;;;23.97;50.59
64544;BME280;50936;51.660;5.616;2023-06-05T04:02:51;101833.53;;;23.97;50.34
64544;BME280;50936;51.660;5.616;2023-06-05T04:05:18;101827.16;;;23.97;50.59
64544;BME280;50936;51.660;5.616;2023-06-05T04:07:45;101831.81;;;23.96;50.66
64544;BME280;50936;51.660;5.616;2023-06-05T04:10:11;101814.41;;;23.96;50.33
64544;BME280;50936;51.660;5.616;2023-06-05T04:12:39;101824.41;;;23.97;50.55
64544;BME280;50936;51.660;5.616;2023-06-05T04:15:07;101814.41;;;23.96;50.23
64544;BME280;50936;51.660;5.616;2023-06-05T04:17:36;101819.94;;;23.96;50.23
64544;BME280;50936;51.660;5.616;2023-06-05T04:20:05;101818.19;;;23.95;50.53
64544;BME280;50936;51.660;5.616;2023-06-05T04:22:36;101817.34;;;23.94;50.61
64544;BME280;50936;51.660;5.616;2023-06-05T04:25:03;101824.56;;;23.95;50.55
64544;BME280;50936;51.660;5.616;2023-06-05T04:27:30;101830.97;;;23.96;50.20
64544;BME280;50936;51.660;5.616;2023-06-05T04:29:57;101827.47;;;23.94;50.68
64544;BME280;50936;51.660;5.616;2023-06-05T04:32:25;101831.13;;;23.94;50.56
64544;BME280;50936;51.660;5.616;2023-06-05T04:34:52;101833.00;;;23.94;50.53
64544;BME280;50936;51.660;5.616;2023-06-05T04:37:19;101829.22;;;23.95;50.22
64544;BME280;50936;51.660;5.616;2023-06-05T04:39:46;101833.88;;;23.94;50.30
64544;BME280;50936;51.660;5.616;2023-06-05T04:42:13;101837.50;;;23.95;50.22
64544;BME280;50936;51.660;5.616;2023-06-05T04:44:44;101840.25;;;23.95;50.15
64544;BME280;50936;51.660;5.616;2023-06-05T04:47:11;101836.66;;;23.94;50.33
64544;BME280;50936;51.660;5.616;2023-06-05T04:49:38;101839.41;;;23.94;50.22
64544;BME280;50936;51.660;5.616;2023-06-05T04:52:06;101840.25;;;23.95;50.28
64544;BME280;50936;51.660;5.616;2023-06-05T04:54:34;101845.78;;;23.95;50.47
64544;BME280;50936;51.660;5.616;2023-06-05T04:57:01;101844.03;;;23.94;50.42
64544;BME280;50936;51.660;5.616;2023-06-05T04:59:29;101838.53;;;23.94;50.53
64544;BME280;50936;51.660;5.616;2023-06-05T05:01:59;101844.03;;;23.94;50.41
64544;BME280;50936;51.660;5.616;2023-06-05T05:04:26;101844.03;;;23.94;50.62
64544;BME280;50936;51.660;5.616;2023-06-05T05:06:54;101844.91;;;23.94;50.60
64544;BME280;50936;51.660;5.616;2023-06-05T05:09:21;101855.06;;;23.94;50.22
64544;BME280;50936;51.660;5.616;2023-06-05T05:11:51;101855.06;;;23.94;50.51
64544;BME280;50936;51.660;5.616;2023-06-05T05:14:20;101852.31;;;23.94;50.26
64544;BME280;50936;51.660;5.616;2023-06-05T05:16:47;101844.03;;;23.94;50.38
64544;BME280;50936;51.660;5.616;2023-06-05T05:19:14;101844.03;;;23.94;50.64
64544;BME280;50936;51.660;5.616;2023-06-05T05:21:41;101853.19;;;23.94;50.49
64544;BME280;50936;51.660;5.616;2023-06-05T05:24:08;101851.28;;;23.95;50.26
64544;BME280;50936;51.660;5.616;2023-06-05T05:26:35;101845.78;;;23.95;50.64
64544;BME280;50936;51.660;5.616;2023-06-05T05:29:03;101847.53;;;23.96;50.50
64544;BME280;50936;51.660;5.616;2023-06-05T05:31:30;101847.53;;;23.96;50.53
64544;BME280;50936;51.660;5.616;2023-06-05T05:33:58;101846.47;;;23.97;50.55
64544;BME280;50936;51.660;5.616;2023-06-05T05:36:26;101839.03;;;23.97;50.27
64544;BME280;50936;51.660;5.616;2023-06-05T05:38:54;101844.56;;;23.97;50.68
64544;BME280;50936;51.660;5.616;2023-06-05T05:41:22;101840.78;;;23.98;50.47
64544;BME280;50936;51.660;5.616;2023-06-05T05:43:48;101841.63;;;23.99;50.60
64544;BME280;50936;51.660;5.616;2023-06-05T05:46:15;101840.63;;;24.00;50.82
64544;BME280;50936;51.660;5.616;2023-06-05T05:48:42;101840.63;;;24.00;50.57
64544;BME280;50936;51.660;5.616;2023-06-05T05:51:09;101852.34;;;24.02;50.43
64544;BME280;50936;51.660;5.616;2023-06-05T05:53:37;101854.03;;;24.03;50.80
64544;BME280;50936;51.660;5.616;2023-06-05T05:56:03;101852.19;;;24.04;50.81
64544;BME280;50936;51.660;5.616;2023-06-05T05:58:31;101859.41;;;24.05;50.65
64544;BME280;50936;51.660;5.616;2023-06-05T06:31:46;101862.31;;;23.36;51.68
64544;BME280;50936;51.660;5.616;2023-06-05T06:34:13;101860.41;;;23.28;52.58
64544;BME280;50936;51.660;5.616;2023-06-05T06:36:40;101862.78;;;23.23;52.65
64544;BME280;50936;51.660;5.616;2023-06-05T06:39:07;101862.09;;;23.21;53.44
64544;BME280;50936;51.660;5.616;2023-06-05T06:41:37;101861.88;;;23.22;53.58
64544;BME280;50936;51.660;5.616;2023-06-05T06:44:04;101868.81;;;23.27;53.78
64544;BME280;50936;51.660;5.616;2023-06-05T06:46:31;101870.22;;;23.31;54.10
64544;BME280;50936;51.660;5.616;2023-06-05T06:48:58;101874.88;;;23.38;54.27
64544;BME280;50936;51.660;5.616;2023-06-05T06:51:25;101874.94;;;23.47;54.11
64544;BME280;50936;51.660;5.616;2023-06-05T06:53:52;101870.13;;;23.57;54.17
64544;BME280;50936;51.660;5.616;2023-06-05T06:56:19;101874.63;;;23.66;53.68
64544;BME280;50936;51.660;5.616;2023-06-05T06:58:46;101875.53;;;23.75;53.98
64544;BME280;50936;51.660;5.616;2023-06-05T07:01:14;101870.09;;;23.83;53.47
64544;BME280;50936;51.660;5.616;2023-06-05T07:03:41;101864.41;;;23.93;53.42
64544;BME280;50936;51.660;5.616;2023-06-05T07:06:11;101882.53;;;24.04;53.27
64544;BME280;50936;51.660;5.616;2023-06-05T07:08:39;101878.06;;;24.11;53.33
64544;BME280;50936;51.660;5.616;2023-06-05T07:11:06;101879.94;;;24.18;52.78
64544;BME280;50936;51.660;5.616;2023-06-05T07:13:33;101879.94;;;24.27;52.91
64544;BME280;50936;51.660;5.616;2023-06-05T07:16:00;101879.97;;;24.35;52.87
64544;BME280;50936;51.660;5.616;2023-06-05T07:18:28;101890.31;;;24.41;52.29
64544;BME280;50936;51.660;5.616;2023-06-05T07:20:54;101893.41;;;24.46;52.09
64544;BME280;50936;51.660;5.616;2023-06-05T07:23:22;101885.47;;;24.51;52.26
64544;BME280;50936;51.660;5.616;2023-06-05T07:25:50;101881.38;;;24.55;51.74
64544;BME280;50936;51.660;5.616;2023-06-05T07:28:17;101878.94;;;24.61;51.73
64544;BME280;50936;51.660;5.616;2023-06-05T07:30:44;101890.34;;;24.66;51.58
64544;BME280;50936;51.660;5.616;2023-06-05T07:33:11;101884.63;;;24.67;51.30
64544;BME280;50936;51.660;5.616;2023-06-05T07:35:55;101888.44;;;24.66;51.29
64544;BME280;50936;51.660;5.616;2023-06-05T07:38:22;101885.84;;;24.65;50.87
64544;BME280;50936;51.660;5.616;2023-06-05T07:40:49;101886.69;;;24.65;50.93
64544;BME280;50936;51.660;5.616;2023-06-05T07:43:16;101881.16;;;24.65;50.67
64544;BME280;50936;51.660;5.616;2023-06-05T07:45:44;101877.56;;;24.65;50.57
64544;BME280;50936;51.660;5.616;2023-06-05T07:48:11;101885.00;;;24.64;50.77
64544;BME280;50936;51.660;5.616;2023-06-05T07:50:38;101882.41;;;24.63;50.85
64544;BME280;50936;51.660;5.616;2023-06-05T07:53:05;101893.44;;;24.63;50.73
64544;BME280;50936;51.660;5.616;2023-06-05T07:55:32;101893.44;;;24.63;50.49
64544;BME280;50936;51.660;5.616;2023-06-05T07:57:59;101887.91;;;24.63;50.65
64544;BME280;50936;51.660;5.616;2023-06-05T08:00:26;101889.66;;;24.64;50.22
64544;BME280;50936;51.660;5.616;2023-06-05T08:02:53;101885.16;;;24.63;50.67
64544;BME280;50936;51.660;5.616;2023-06-05T08:05:20;101887.91;;;24.63;50.56
64544;BME280;50936;51.660;5.616;2023-06-05T08:07:47;101884.13;;;24.64;50.15
64544;BME280;50936;51.660;5.616;2023-06-05T08:10:14;101876.88;;;24.63;50.08
64544;BME280;50936;51.660;5.616;2023-06-05T08:12:41;101878.59;;;24.64;50.24
64544;BME280;50936;51.660;5.616;2023-06-05T08:15:08;101876.88;;;24.63;50.08
64544;BME280;50936;51.660;5.616;2023-06-05T08:17:35;101874.09;;;24.63;50.32
64544;BME280;50936;51.660;5.616;2023-06-05T08:20:02;101873.09;;;24.64;50.06
64544;BME280;50936;51.660;5.616;2023-06-05T08:22:32;101867.56;;;24.64;50.00
64544;BME280;50936;51.660;5.616;2023-06-05T08:24:59;101865.81;;;24.63;49.93
64544;BME280;50936;51.660;5.616;2023-06-05T08:27:26;101861.16;;;24.63;50.14
64544;BME280;50936;51.660;5.616;2023-06-05T08:29:53;101862.03;;;24.64;50.17
64544;BME280;50936;51.660;5.616;2023-06-05T08:32:20;101862.03;;;24.64;50.10
64544;BME280;50936;51.660;5.616;2023-06-05T08:34:48;101859.28;;;24.64;49.84
64544;BME280;50936;51.660;5.616;2023-06-05T08:37:15;101858.22;;;24.65;50.09
64544;BME280;50936;51.660;5.616;2023-06-05T08:39:42;101858.22;;;24.65;50.23
64544;BME280;50936;51.660;5.616;2023-06-05T08:42:10;101858.22;;;24.65;49.92
64544;BME280;50936;51.660;5.616;2023-06-05T08:44:38;101857.19;;;24.66;50.15
64544;BME280;50936;51.660;5.616;2023-06-05T08:47:15;101854.44;;;24.66;50.14
64544;BME280;50936;51.660;5.616;2023-06-05T08:49:42;101855.28;;;24.66;49.89
64544;BME280;50936;51.660;5.616;2023-06-05T08:52:11;101852.53;;;24.66;49.67
64544;BME280;50936;51.660;5.616;2023-06-05T08:54:40;101853.38;;;24.67;49.72
64544;BME280;50936;51.660;5.616;2023-06-05T08:57:08;101852.53;;;24.66;49.85
64544;BME280;50936;51.660;5.616;2023-06-05T08:59:35;101857.00;;;24.67;50.06
64544;BME280;50936;51.660;5.616;2023-06-05T09:02:03;101857.88;;;24.68;49.64
64544;BME280;50936;51.660;5.616;2023-06-05T09:04:31;101852.34;;;24.68;49.93
64544;BME280;50936;51.660;5.616;2023-06-05T09:06:58;101857.88;;;24.68;49.97
64544;BME280;50936;51.660;5.616;2023-06-05T09:09:26;101848.53;;;24.69;49.83
64544;BME280;50936;51.660;5.616;2023-06-05T09:12:04;101858.56;;;24.70;49.88
64544;BME280;50936;51.660;5.616;2023-06-05T09:14:33;101855.81;;;24.70;49.71
64544;BME280;50936;51.660;5.616;2023-06-05T09:17:00;101853.72;;;24.72;49.94
64544;BME280;50936;51.660;5.616;2023-06-05T09:19:36;101849.06;;;24.72;49.71
64544;BME280;50936;51.660;5.616;2023-06-05T09:22:06;101847.34;;;24.71;49.47
64544;BME280;50936;51.660;5.616;2023-06-05T09:24:34;101840.75;;;24.72;49.45
64544;BME280;50936;51.660;5.616;2023-06-05T09:27:02;101846.13;;;24.74;49.83
64544;BME280;50936;51.660;5.616;2023-06-05T09:29:37;101843.34;;;24.74;49.63
64544;BME280;50936;51.660;5.616;2023-06-05T09:34:42;101846.13;;;24.74;49.48
64544;BME280;50936;51.660;5.616;2023-06-05T09:37:12;101838.50;;;24.76;49.34
64544;BME280;50936;51.660;5.616;2023-06-05T09:39:40;101844.91;;;24.76;49.66
64544;BME280;50936;51.660;5.616;2023-06-05T09:42:11;101835.56;;;24.77;49.56
64544;BME280;50936;51.660;5.616;2023-06-05T09:44:38;101834.72;;;24.77;49.50
64544;BME280;50936;51.660;5.616;2023-06-05T09:47:06;101837.31;;;24.78;49.25
64544;BME280;50936;51.660;5.616;2023-06-05T09:52:10;101832.66;;;24.79;49.44
64544;BME280;50936;51.660;5.616;2023-06-05T09:54:40;101839.03;;;24.79;49.61
64544;BME280;50936;51.660;5.616;2023-06-05T09:57:13;101833.31;;;24.81;49.57
64544;BME280;50936;51.660;5.616;2023-06-05T09:59:51;101829.72;;;24.81;49.54
64544;BME280;50936;51.660;5.616;2023-06-05T10:02:23;101831.63;;;24.80;49.10
64544;BME280;50936;51.660;5.616;2023-06-05T10:04:57;101832.31;;;24.82;49.33
64544;BME280;50936;51.660;5.616;2023-06-05T10:07:27;101826.78;;;24.82;49.57
64544;BME280;50936;51.660;5.616;2023-06-05T10:09:54;101811.91;;;24.83;49.06
64544;BME280;50936;51.660;5.616;2023-06-05T10:12:24;101831.06;;;24.85;49.24
64544;BME280;50936;51.660;5.616;2023-06-05T10:14:54;101824.31;;;24.87;49.31
64544;BME280;50936;51.660;5.616;2023-06-05T10:17:21;101831.59;;;24.88;49.29
64544;BME280;50936;51.660;5.616;2023-06-05T10:19:50;101821.22;;;24.90;49.52
64544;BME280;50936;51.660;5.616;2023-06-05T10:22:18;101822.94;;;24.91;49.48
64544;BME280;50936;51.660;5.616;2023-06-05T10:24:54;101814.28;;;24.94;49.61
64544;BME280;50936;51.660;5.616;2023-06-05T10:27:47;101816.88;;;24.96;49.66
64544;BME280;50936;51.660;5.616;2023-06-05T10:30:59;101820.31;;;24.98;49.79
64544;BME280;50936;51.660;5.616;2023-06-05T10:39:22;101818.75;;;25.04;49.92
64544;BME280;50936;51.660;5.616;2023-06-05T10:41:52;101814.94;;;25.05;50.04
64544;BME280;50936;51.660;5.616;2023-06-05T10:44:38;101811.16;;;25.06;50.17
64544;BME280;50936;51.660;5.616;2023-06-05T10:50:31;101810.78;;;25.09;50.29
64544;BME280;50936;51.660;5.616;2023-06-05T10:52:58;101805.06;;;25.10;50.36
64544;BME280;50936;51.660;5.616;2023-06-05T10:55:26;101807.84;;;25.10;50.55
64544;BME280;50936;51.660;5.616;2023-06-05T10:58:03;101804.91;;;25.12;50.36
64544;BME280;50936;51.660;5.616;2023-06-05T11:00:34;101810.44;;;25.12;50.36
64544;BME280;50936;51.660;5.616;2023-06-05T11:03:01;101804.91;;;25.12;50.59
64544;BME280;50936;51.660;5.616;2023-06-05T11:05:29;101803.16;;;25.11;50.58
64544;BME280;50936;51.660;5.616;2023-06-05T11:08:13;101795.56;;;25.13;50.83
64544;BME280;50936;51.660;5.616;2023-06-05T11:11:05;101790.03;;;25.13;50.77
64544;BME280;50936;51.660;5.616;2023-06-05T11:16:32;101779.84;;;25.13;50.79
64544;BME280;50936;51.660;5.616;2023-06-05T11:22:09;101778.97;;;25.13;50.58
64544;BME280;50936;51.660;5.616;2023-06-05T11:24:39;101779.84;;;25.13;50.78
64544;BME280;50936;51.660;5.616;2023-06-05T11:27:06;101774.31;;;25.13;50.44
64544;BME280;50936;51.660;5.616;2023-06-05T11:29:37;101770.50;;;25.14;50.69
64544;BME280;50936;51.660;5.616;2023-06-05T11:32:10;101769.66;;;25.14;50.53
64544;BME280;50936;51.660;5.616;2023-06-05T11:34:39;101776.03;;;25.14;50.66
64544;BME280;50936;51.660;5.616;2023-06-05T11:37:16;101770.50;;;25.14;50.49
64544;BME280;50936;51.660;5.616;2023-06-05T11:39:44;101773.44;;;25.13;50.40
64544;BME280;50936;51.660;5.616;2023-06-05T11:42:11;101764.13;;;25.14;50.63
64544;BME280;50936;51.660;5.616;2023-06-05T11:44:38;101766.88;;;25.14;50.70
64544;BME280;50936;51.660;5.616;2023-06-05T11:47:05;101769.66;;;25.14;50.50
64544;BME280;50936;51.660;5.616;2023-06-05T11:49:32;101762.38;;;25.13;50.53
64544;BME280;50936;51.660;5.616;2023-06-05T11:51:59;101759.63;;;25.13;50.31
64544;BME280;50936;51.660;5.616;2023-06-05T11:54:32;101767.06;;;25.12;50.54
64544;BME280;50936;51.660;5.616;2023-06-05T11:57:06;101757.91;;;25.12;50.17
64544;BME280;50936;51.660;5.616;2023-06-05T11:59:37;101756.84;;;25.13;50.59
64544;BME280;50936;51.660;5.616;2023-06-05T12:02:05;101753.25;;;25.12;50.53
64544;BME280;50936;51.660;5.616;2023-06-05T12:04:33;101749.63;;;25.12;50.17
64544;BME280;50936;51.660;5.616;2023-06-05T12:07:01;101745.81;;;25.13;50.29
64544;BME280;50936;51.660;5.616;2023-06-05T12:09:29;101748.78;;;25.11;50.51
64544;BME280;50936;51.660;5.616;2023-06-05T12:12:07;101752.38;;;25.12;50.30
64544;BME280;50936;51.660;5.616;2023-06-05T12:14:36;101738.56;;;25.12;50.38
64544;BME280;50936;51.660;5.616;2023-06-05T12:17:10;101744.09;;;25.12;50.60
64544;BME280;50936;51.660;5.616;2023-06-05T12:19:38;101736.81;;;25.11;50.61
64544;BME280;50936;51.660;5.616;2023-06-05T12:22:07;101736.81;;;25.11;50.72
64544;BME280;50936;51.660;5.616;2023-06-05T12:24:36;101735.81;;;25.12;50.79
64544;BME280;50936;51.660;5.616;2023-06-05T12:27:03;101740.28;;;25.13;50.54
64544;BME280;50936;51.660;5.616;2023-06-05T12:29:35;101735.63;;;25.13;50.71
64544;BME280;50936;51.660;5.616;2023-06-05T12:32:25;101730.94;;;25.14;50.95
64544;BME280;50936;51.660;5.616;2023-06-05T12:34:53;101726.28;;;25.14;50.78
64544;BME280;50936;51.660;5.616;2023-06-05T12:37:33;101718.88;;;25.15;51.11
64544;BME280;50936;51.660;5.616;2023-06-05T12:40:05;101726.28;;;25.14;51.02
64544;BME280;50936;51.660;5.616;2023-06-05T12:42:38;101725.44;;;25.14;51.19
64544;BME280;50936;51.660;5.616;2023-06-05T12:45:08;101716.09;;;25.15;50.82
64544;BME280;50936;51.660;5.616;2023-06-05T12:47:37;101723.34;;;25.16;50.98
64544;BME280;50936;51.660;5.616;2023-06-05T12:50:05;101718.66;;;25.16;50.91
64544;BME280;50936;51.660;5.616;2023-06-05T12:52:40;101706.75;;;25.16;50.92
64544;BME280;50936;51.660;5.616;2023-06-05T12:55:08;101702.06;;;25.16;50.94
64544;BME280;50936;51.660;5.616;2023-06-05T12:57:35;101714.00;;;25.17;50.90
64544;BME280;50936;51.660;5.616;2023-06-05T13:00:04;101702.06;;;25.16;50.72
64544;BME280;50936;51.660;5.616;2023-06-05T13:02:42;101716.78;;;25.17;51.07
64544;BME280;50936;51.660;5.616;2023-06-05T13:05:15;101707.59;;;25.16;51.05
64544;BME280;50936;51.660;5.616;2023-06-05T13:07:43;101708.47;;;25.17;50.96
64544;BME280;50936;51.660;5.616;2023-06-05T13:10:11;101698.47;;;25.16;50.92
64544;BME280;50936;51.660;5.616;2023-06-05T13:12:38;101699.50;;;25.15;50.84
64544;BME280;50936;51.660;5.616;2023-06-05T13:15:05;101695.03;;;25.14;50.92
64544;BME280;50936;51.660;5.616;2023-06-05T13:17:33;101690.53;;;25.13;50.88
64544;BME280;50936;51.660;5.616;2023-06-05T13:20:03;101685.00;;;25.13;50.93
64544;BME280;50936;51.660;5.616;2023-06-05T13:22:41;101678.63;;;25.12;50.81
64544;BME280;50936;51.660;5.616;2023-06-05T13:25:09;101673.94;;;25.13;50.72
64544;BME280;50936;51.660;5.616;2023-06-05T13:27:36;101679.47;;;25.13;50.59
64544;BME280;50936;51.660;5.616;2023-06-05T13:30:04;101677.75;;;25.12;50.86
64544;BME280;50936;51.660;5.616;2023-06-05T13:32:32;101672.22;;;25.12;50.89
64544;BME280;50936;51.660;5.616;2023-06-05T13:35:01;101673.94;;;25.13;50.82
64544;BME280;50936;51.660;5.616;2023-06-05T13:37:27;101668.41;;;25.13;50.91
64544;BME280;50936;51.660;5.616;2023-06-05T13:39:55;101668.41;;;25.13;50.74
64544;BME280;50936;51.660;5.616;2023-06-05T13:42:21;101668.41;;;25.13;50.78
64544;BME280;50936;51.660;5.616;2023-06-05T13:44:48;101662.88;;;25.13;50.64
64544;BME280;50936;51.660;5.616;2023-06-05T13:47:15;101663.75;;;25.13;50.92
64544;BME280;50936;51.660;5.616;2023-06-05T13:49:42;101668.91;;;25.16;50.86
64544;BME280;50936;51.660;5.616;2023-06-05T13:52:09;101664.25;;;25.17;50.82
64544;BME280;50936;51.660;5.616;2023-06-05T13:54:36;101666.63;;;25.20;50.72